Time;durP1;ratioP1;P1;durP2;ratioP2;P2;SDS_P1;SDS_P2;PMS_P1;PMS_P2;Temp;Humidity;BMP_temperature;BMP_pressure;BME280_temperature;BME280_humidity;BME280_pressure;Samples;Min_cycle;Max_cycle;Signal;HPM_P1;HPM_P2
2021/07/23 00:01:32;;;;;;;;;0.00;0.00;;;;;28.29;80.92;101236.03;5043952;28;45324;-62
2021/07/23 00:03:58;;;;;;;;;0.00;0.00;;;;;28.22;81.89;101236.09;5041816;28;45356;-62
2021/07/23 00:06:23;;;;;;;;;0.00;0.00;;;;;28.27;81.23;101230.03;5042460;28;45546;-63
2021/07/23 00:08:49;;;;;;;;;0.00;0.00;;;;;28.37;80.88;101233.03;5041510;28;46240;-62
2021/07/23 00:11:14;;;;;;;;;0.00;0.00;;;;;28.34;81.99;101242.44;5041807;28;45245;-62
2021/07/23 00:13:39;;;;;;;;;0.25;0.25;;;;;28.33;81.03;101235.34;5042057;28;45182;-62
2021/07/23 00:16:05;;;;;;;;;5.25;1.75;;;;;28.30;80.56;101232.28;5041960;28;45370;-63
2021/07/23 00:18:30;;;;;;;;;0.00;0.00;;;;;28.30;80.93;101230.41;5034909;28;46023;-64
2021/07/23 00:20:56;;;;;;;;;0.00;0.00;;;;;28.26;81.91;101221.09;5041910;28;45151;-63
2021/07/23 00:23:21;;;;;;;;;0.00;0.00;;;;;28.19;82.56;101229.28;5041790;28;45493;-63
2021/07/23 00:25:46;;;;;;;;;0.00;0.00;;;;;28.20;82.15;101230.91;5042236;28;45178;-63
2021/07/23 00:28:13;;;;;;;;;0.00;0.00;;;;;28.23;81.69;101227.78;5041654;28;46254;-62
2021/07/23 00:30:38;;;;;;;;;0.00;0.00;;;;;28.21;82.18;101223.66;5041534;28;45225;-63
2021/07/23 00:33:03;;;;;;;;;0.00;0.00;;;;;28.08;82.63;101218.38;5041937;28;48470;-63
2021/07/23 00:35:29;;;;;;;;;0.00;0.00;;;;;28.04;81.99;101209.94;5041930;28;45311;-63
2021/07/23 00:37:56;;;;;;;;;0.00;0.00;;;;;27.93;84.56;101205.28;5041516;28;45457;-62
2021/07/23 00:40:22;;;;;;;;;2.50;0.00;;;;;27.89;84.49;101210.28;5041509;28;45304;-63
2021/07/23 00:42:47;;;;;;;;;0.00;0.00;;;;;27.83;83.64;101211.13;5041643;28;45301;-63
2021/07/23 00:45:13;;;;;;;;;0.00;0.00;;;;;27.84;84.93;101212.81;5041835;28;45261;-63
2021/07/23 00:47:40;;;;;;;;;0.00;0.00;;;;;27.82;84.10;101214.91;5041178;28;45294;-62
2021/07/23 00:50:06;;;;;;;;;0.00;0.00;;;;;27.73;85.67;101208.97;5041492;28;45268;-63
2021/07/23 00:52:32;;;;;;;;;0.00;0.00;;;;;27.73;84.33;101208.09;5041587;28;45293;-61
2021/07/23 00:54:58;;;;;;;;;0.00;0.00;;;;;27.68;84.76;101210.66;5041878;28;45602;-62
2021/07/23 00:57:24;;;;;;;;;0.00;0.00;;;;;27.56;85.52;101208.69;5041216;28;45512;-62
2021/07/23 00:59:50;;;;;;;;;0.00;0.00;;;;;27.46;86.42;101208.34;5040978;28;45303;-62
2021/07/23 01:02:16;;;;;;;;;0.00;0.00;;;;;27.44;86.42;101196.94;5041267;28;45319;-62
2021/07/23 01:04:41;;;;;;;;;0.00;0.00;;;;;27.42;85.64;101199.03;5043881;28;45315;-62
2021/07/23 01:07:07;;;;;;;;;0.00;0.00;;;;;27.36;87.73;101195.34;5043995;28;46844;-62
2021/07/23 01:09:32;;;;;;;;;0.00;0.00;;;;;27.27;87.17;101195.84;5041307;28;45351;-62
2021/07/23 01:11:59;;;;;;;;;0.00;0.00;;;;;27.20;88.65;101190.47;5040170;28;45236;-62
2021/07/23 01:14:25;;;;;;;;;0.00;0.00;;;;;27.17;89.24;101183.63;5041489;28;45443;-63
2021/07/23 01:16:50;;;;;;;;;0.00;0.00;;;;;27.17;89.24;101180.94;5036786;28;46259;-63
2021/07/23 01:19:17;;;;;;;;;0.25;0.25;;;;;27.15;89.83;101174.13;5031756;28;45224;-62
2021/07/23 01:21:48;;;;;;;;;0.00;0.00;;;;;27.07;89.20;101177.06;5051648;28;45292;-63
2021/07/23 01:24:14;;;;;;;;;0.00;0.00;;;;;26.93;90.70;101170.94;5041458;28;45216;-62
2021/07/23 01:26:40;;;;;;;;;0.00;0.00;;;;;26.96;89.59;101173.22;5041034;28;45425;-63
2021/07/23 01:29:05;;;;;;;;;0.00;0.00;;;;;26.90;90.75;101174.88;5041138;28;45311;-62
2021/07/23 01:31:31;;;;;;;;;0.00;0.00;;;;;26.87;90.79;101178.03;5041080;28;45186;-62
2021/07/23 01:33:56;;;;;;;;;0.00;0.00;;;;;26.89;91.24;101181.34;5041039;28;45182;-65
2021/07/23 01:36:22;;;;;;;;;1.00;0.00;;;;;26.82;91.92;101174.31;5040453;28;46334;-63
2021/07/23 01:38:49;;;;;;;;;0.00;0.00;;;;;26.79;91.64;101178.28;5040761;28;45253;-63
2021/07/23 01:41:15;;;;;;;;;0.00;0.00;;;;;26.71;92.01;101181.22;5041102;28;45307;-62
2021/07/23 01:43:40;;;;;;;;;0.00;0.00;;;;;26.69;91.52;101176.03;5041259;28;46530;-62
2021/07/23 01:46:06;;;;;;;;;0.00;0.00;;;;;26.72;93.23;101177.50;5022745;28;48099;-63
2021/07/23 01:48:31;;;;;;;;;0.00;0.00;;;;;26.73;91.67;101176.44;5040517;28;45339;-62
2021/07/23 01:50:56;;;;;;;;;0.00;0.00;;;;;26.63;92.18;101166.16;5040725;28;45300;-62
2021/07/23 01:53:22;;;;;;;;;0.00;0.00;;;;;26.61;92.36;101173.63;5024958;28;45535;-63
2021/07/23 01:55:47;;;;;;;;;0.00;0.00;;;;;26.58;93.28;101165.94;5042920;28;45581;-63
2021/07/23 01:58:13;;;;;;;;;0.00;0.00;;;;;26.61;92.11;101160.16;5040658;28;46024;-63
2021/07/23 02:00:39;;;;;;;;;3.00;3.00;;;;;26.65;91.83;101169.41;5022756;28;45381;-63
2021/07/23 02:03:04;;;;;;;;;0.00;0.00;;;;;26.64;91.91;101167.78;5040855;28;45247;-63
2021/07/23 02:05:30;;;;;;;;;0.00;0.00;;;;;26.67;92.67;101161.13;5022822;28;47963;-63
2021/07/23 02:07:55;;;;;;;;;0.00;0.00;;;;;26.62;93.40;101160.97;5040792;28;45273;-64
2021/07/23 02:10:20;;;;;;;;;0.00;0.00;;;;;26.57;93.02;101157.03;5022801;28;46553;-63
2021/07/23 02:12:46;;;;;;;;;0.00;0.00;;;;;26.53;94.73;101152.28;5050012;28;45213;-63
2021/07/23 02:15:11;;;;;;;;;0.00;0.00;;;;;26.46;94.66;101151.47;5040198;28;45332;-63
2021/07/23 02:17:37;;;;;;;;;0.00;0.00;;;;;26.42;94.60;101152.97;5029694;28;45348;-63
2021/07/23 02:20:03;;;;;;;;;0.00;0.00;;;;;26.37;94.60;101158.97;5020384;28;45293;-62
2021/07/23 02:22:28;;;;;;;;;0.00;0.00;;;;;26.30;95.38;101160.84;5021101;28;45268;-63
2021/07/23 02:24:53;;;;;;;;;0.00;0.00;;;;;26.20;96.01;101158.63;5040540;28;46244;-63
2021/07/23 02:27:18;;;;;;;;;0.00;0.00;;;;;26.17;97.75;101164.41;5050835;28;45453;-63
2021/07/23 02:29:44;;;;;;;;;0.00;0.00;;;;;26.15;96.94;101153.84;5047084;28;45385;-64
2021/07/23 02:32:09;;;;;;;;;1.00;0.00;;;;;26.18;96.77;101149.94;5043676;28;45400;-63
2021/07/23 02:34:35;;;;;;;;;0.00;0.00;;;;;26.22;96.42;101158.41;5043524;28;45408;-63
2021/07/23 02:37:00;;;;;;;;;0.00;0.00;;;;;26.28;96.62;101160.25;5043645;28;45340;-62
2021/07/23 02:39:25;;;;;;;;;0.00;0.00;;;;;26.31;95.68;101157.16;5043537;28;45367;-63
2021/07/23 02:41:51;;;;;;;;;0.00;0.00;;;;;26.25;99.21;101156.13;5025972;28;45341;-63
2021/07/23 02:44:17;;;;;;;;;0.00;0.00;;;;;26.29;96.00;101154.66;5054305;28;45448;-63
2021/07/23 02:46:42;;;;;;;;;0.00;0.00;;;;;26.32;97.11;101151.53;5043533;28;45354;-63
2021/07/23 02:49:07;;;;;;;;;0.00;0.00;;;;;26.37;95.39;101151.72;5043143;28;46650;-63
2021/07/23 02:51:33;;;;;;;;;0.00;0.00;;;;;26.29;96.60;101154.66;5043844;28;45308;-62
2021/07/23 02:53:58;;;;;;;;;0.00;0.00;;;;;26.22;96.94;101156.56;5043341;28;46470;-63
2021/07/23 02:56:25;;;;;;;;;0.00;0.00;;;;;26.19;97.03;101155.09;5043496;28;45284;-62
2021/07/23 02:58:51;;;;;;;;;0.00;0.00;;;;;26.17;96.78;101143.72;5043345;28;45553;-63
2021/07/23 03:01:16;;;;;;;;;0.00;0.00;;;;;26.15;97.35;101144.97;5049339;28;45205;-63
2021/07/23 03:03:42;;;;;;;;;0.00;0.00;;;;;26.10;97.59;101140.22;5028912;28;46571;-63
2021/07/23 03:06:07;;;;;;;;;0.50;0.50;;;;;26.08;97.15;101128.84;5043454;28;48076;-63
2021/07/23 03:08:32;;;;;;;;;0.00;0.00;;;;;26.04;99.14;101127.59;5043411;28;45250;-63
2021/07/23 03:10:58;;;;;;;;;0.00;0.00;;;;;26.08;98.32;101122.63;5043397;28;45225;-62
2021/07/23 03:13:23;;;;;;;;;0.50;0.50;;;;;26.06;97.47;101130.09;5042999;28;45519;-63
2021/07/23 03:15:48;;;;;;;;;0.00;0.00;;;;;26.04;98.79;101129.47;5043213;28;45503;-63
2021/07/23 03:18:17;;;;;;;;;0.00;0.00;;;;;25.98;99.38;101126.59;5016135;28;45233;-63
2021/07/23 03:20:42;;;;;;;;;4.00;0.00;;;;;25.94;98.78;101122.69;5052169;28;45388;-63
2021/07/23 03:23:07;;;;;;;;;0.00;0.00;;;;;25.87;99.47;101124.50;5042655;28;45366;-63
2021/07/23 03:25:33;;;;;;;;;0.00;0.00;;;;;25.89;99.64;101133.22;5042901;28;45333;-64
2021/07/23 03:27:59;;;;;;;;;0.00;0.00;;;;;25.90;99.86;101134.91;5043189;28;45309;-63
2021/07/23 03:30:25;;;;;;;;;0.00;0.00;;;;;25.90;100.00;101129.53;5042866;28;45433;-62
2021/07/23 03:32:50;;;;;;;;;0.00;0.00;;;;;25.92;99.89;101118.56;5042437;28;46196;-63
2021/07/23 03:35:15;;;;;;;;;0.00;0.00;;;;;25.91;100.00;101128.47;5042163;28;45256;-63
2021/07/23 03:37:41;;;;;;;;;0.00;0.00;;;;;25.90;100.00;101129.53;5042925;28;45299;-63
2021/07/23 03:40:08;;;;;;;;;0.00;0.00;;;;;25.86;98.75;101130.94;5043037;28;45351;-63
2021/07/23 03:42:34;;;;;;;;;0.00;0.00;;;;;25.85;100.00;101133.84;5042603;28;46335;-63
2021/07/23 03:45:00;;;;;;;;;0.00;0.00;;;;;25.76;100.00;101125.16;5042668;28;45493;-63
2021/07/23 03:47:25;;;;;;;;;0.00;0.00;;;;;25.79;100.00;101127.44;5042441;28;45533;-63
2021/07/23 03:49:51;;;;;;;;;0.00;0.00;;;;;25.76;100.00;101122.47;5047987;28;45304;-64
2021/07/23 03:52:16;;;;;;;;;0.00;0.00;;;;;25.79;100.00;101119.38;5046903;28;45332;-64
2021/07/23 03:54:42;;;;;;;;;0.00;0.00;;;;;25.74;100.00;101106.53;5042478;28;45328;-63
2021/07/23 03:57:07;;;;;;;;;0.00;0.00;;;;;25.70;100.00;101097.25;5042526;28;45485;-63
2021/07/23 03:59:33;;;;;;;;;0.00;0.00;;;;;25.68;100.00;101082.34;5042181;28;45309;-63
2021/07/23 04:01:59;;;;;;;;;0.00;0.00;;;;;25.67;100.00;101072.63;5041804;28;45345;-63
2021/07/23 04:04:24;;;;;;;;;0.00;0.00;;;;;25.65;100.00;101072.84;5041926;28;45268;-63
2021/07/23 04:06:59;;;;;;;;;0.00;0.00;;;;;25.61;100.00;101070.78;5042435;28;45249;-63
2021/07/23 04:09:25;;;;;;;;;0.00;0.00;;;;;25.57;100.00;101059.59;5034829;28;45526;-63
2021/07/23 04:11:52;;;;;;;;;0.00;0.00;;;;;25.52;100.00;101052.19;5042018;28;47096;-64
2021/07/23 04:14:17;;;;;;;;;0.00;0.00;;;;;25.49;100.00;101052.59;5042071;28;45402;-63
2021/07/23 04:16:43;;;;;;;;;0.00;0.00;;;;;25.37;100.00;101055.09;5039226;28;45246;-63
2021/07/23 04:19:09;;;;;;;;;0.00;0.00;;;;;25.38;100.00;101059.44;5022350;28;45397;-62
2021/07/23 04:21:34;;;;;;;;;0.00;0.00;;;;;25.34;100.00;101063.59;5037720;28;51427;-64
2021/07/23 04:24:00;;;;;;;;;0.00;0.00;;;;;25.38;100.00;101064.00;5044153;28;45430;-63
2021/07/23 04:26:25;;;;;;;;;0.00;0.00;;;;;25.38;100.00;101069.38;5041767;28;45721;-63
2021/07/23 04:28:50;;;;;;;;;0.00;0.00;;;;;25.35;100.00;101057.16;5024474;28;45458;-63
2021/07/23 04:31:15;;;;;;;;;0.00;0.00;;;;;25.23;100.00;101063.41;5041478;28;48683;-64
2021/07/23 04:33:41;;;;;;;;;0.00;0.00;;;;;25.22;100.00;101059.06;5041649;28;46656;-63
2021/07/23 04:36:06;;;;;;;;;0.00;0.00;;;;;25.26;100.00;101052.22;5041673;28;48245;-63
2021/07/23 04:38:31;;;;;;;;;0.00;0.00;;;;;25.29;100.00;101057.19;5041921;28;45592;-64
2021/07/23 04:40:57;;;;;;;;;0.00;0.00;;;;;25.35;100.00;101059.03;5045342;28;45352;-63
2021/07/23 04:43:22;;;;;;;;;0.00;0.00;;;;;25.34;100.00;101058.22;5041643;28;45390;-64
2021/07/23 04:45:47;;;;;;;;;3.00;1.00;;;;;25.29;100.00;101057.19;5041033;28;45304;-63
2021/07/23 04:48:13;;;;;;;;;1.00;1.00;;;;;25.32;100.00;101054.91;5041854;28;45466;-63
2021/07/23 04:50:38;;;;;;;;;0.00;0.00;;;;;25.30;100.00;101056.97;5041278;28;45610;-64
2021/07/23 04:53:03;;;;;;;;;0.00;0.00;;;;;25.27;100.00;101057.41;5041750;28;45359;-63
2021/07/23 04:55:29;;;;;;;;;0.00;0.00;;;;;25.24;100.00;101052.44;5043052;28;45232;-63
2021/07/23 04:57:55;;;;;;;;;0.00;0.00;;;;;25.29;100.00;101052.66;5041824;28;45553;-64
2021/07/23 05:00:20;;;;;;;;;0.00;0.00;;;;;25.34;100.00;101049.34;5041143;28;45340;-63
2021/07/23 05:02:53;;;;;;;;;0.00;0.00;;;;;25.38;100.00;101058.63;5041116;28;45300;-63
2021/07/23 05:05:21;;;;;;;;;0.00;0.00;;;;;25.39;100.00;101060.28;5041629;28;45478;-63
2021/07/23 05:07:46;;;;;;;;;0.00;0.00;;;;;25.41;100.00;101062.75;5041774;28;45269;-63
2021/07/23 05:10:11;;;;;;;;;4.25;4.25;;;;;25.31;100.00;101068.56;5041034;28;45355;-62
2021/07/23 05:12:37;;;;;;;;;0.75;0.75;;;;;25.25;100.00;101078.28;5040788;28;45170;-64
2021/07/23 05:15:04;;;;;;;;;0.00;0.00;;;;;25.26;100.00;101071.03;5040910;28;45380;-63
2021/07/23 05:17:31;;;;;;;;;0.00;0.00;;;;;25.33;100.00;101071.84;5031248;28;45295;-64
2021/07/23 05:19:57;;;;;;;;;0.00;0.00;;;;;25.36;100.00;101063.41;5020510;28;45348;-63
2021/07/23 05:22:22;;;;;;;;;0.00;0.00;;;;;25.30;100.00;101064.22;5021051;28;45366;-63
2021/07/23 05:24:48;;;;;;;;;0.00;0.00;;;;;25.32;100.00;101062.97;5036868;28;45536;-63
2021/07/23 05:27:13;;;;;;;;;0.00;0.00;;;;;25.35;100.00;101056.34;5041053;28;45244;-63
2021/07/23 05:29:38;;;;;;;;;0.00;0.00;;;;;25.38;100.00;101053.25;5049756;28;45381;-64
2021/07/23 05:32:04;;;;;;;;;0.00;0.00;;;;;25.46;100.00;101060.25;5040368;28;45357;-63
2021/07/23 05:34:29;;;;;;;;;0.00;0.00;;;;;25.45;100.00;101048.69;5041026;28;45695;-63
2021/07/23 05:36:57;;;;;;;;;0.00;0.00;;;;;25.51;100.00;101049.72;5040928;28;45572;-63
2021/07/23 05:39:23;;;;;;;;;0.00;0.00;;;;;25.60;100.00;101053.00;5040530;28;45486;-64
2021/07/23 05:41:48;;;;;;;;;0.00;0.00;;;;;25.66;100.00;101055.69;5040950;28;45232;-64
2021/07/23 05:44:14;;;;;;;;;0.00;0.00;;;;;25.74;100.00;101046.53;5042129;28;45547;-63
2021/07/23 05:46:39;;;;;;;;;0.00;0.00;;;;;25.76;100.00;101057.91;5052586;28;45578;-63
2021/07/23 05:49:05;;;;;;;;;0.00;0.00;;;;;25.75;100.00;101050.88;5022183;28;46257;-64
2021/07/23 05:51:31;;;;;;;;;0.00;0.00;;;;;25.79;100.00;101055.63;5040658;28;45414;-63
2021/07/23 05:53:56;;;;;;;;;0.00;0.00;;;;;25.80;100.00;101045.69;5040685;28;45583;-63
2021/07/23 05:56:21;;;;;;;;;0.00;0.00;;;;;25.82;100.00;101040.91;5040586;28;45441;-62
2021/07/23 05:58:47;;;;;;;;;0.00;0.00;;;;;25.80;100.00;101043.00;5042550;28;45348;-63
2021/07/23 06:01:12;;;;;;;;;0.00;0.00;;;;;25.94;100.00;101041.09;5032517;28;45331;-64
2021/07/23 06:03:39;;;;;;;;;0.00;0.00;;;;;26.03;100.00;101045.22;5043319;28;45326;-64
2021/07/23 06:06:05;;;;;;;;;0.00;0.00;;;;;26.01;100.00;101031.16;5044333;28;45492;-64
2021/07/23 06:08:30;;;;;;;;;0.00;0.00;;;;;26.05;100.00;101026.16;5043576;28;45671;-63
2021/07/23 06:10:56;;;;;;;;;1.00;1.00;;;;;26.06;100.00;101025.94;5043903;28;45217;-64
2021/07/23 06:13:21;;;;;;;;;0.00;0.00;;;;;26.20;100.00;101018.63;5036452;28;45407;-63
2021/07/23 06:15:47;;;;;;;;;0.00;0.00;;;;;26.53;100.00;101007.63;5039377;28;45237;-63
2021/07/23 06:18:12;;;;;;;;;1.25;0.00;;;;;26.99;99.64;101006.47;5040037;28;45515;-64
2021/07/23 06:20:37;;;;;;;;;0.00;0.00;;;;;27.37;98.38;101002.00;5034276;28;45590;-63
2021/07/23 06:23:03;;;;;;;;;0.00;0.00;;;;;27.77;97.24;101001.50;5042622;28;45505;-64
2021/07/23 06:25:28;;;;;;;;;4.50;3.75;;;;;27.90;93.42;100998.66;5042138;28;45429;-64
2021/07/23 06:27:53;;;;;;;;;0.00;0.00;;;;;28.16;93.78;101005.56;5041767;28;46512;-63
2021/07/23 06:30:19;;;;;;;;;0.00;0.00;;;;;28.44;93.43;101006.84;5036003;28;45585;-63
2021/07/23 06:32:44;;;;;;;;;0.00;0.00;;;;;28.62;90.91;101000.59;5027640;28;45659;-64
2021/07/23 06:35:10;;;;;;;;;0.00;0.00;;;;;28.87;89.78;101003.06;5041510;28;45232;-64
2021/07/23 06:37:35;;;;;;;;;0.00;0.00;;;;;29.10;88.90;100996.06;5042151;28;46482;-64
2021/07/23 06:40:01;;;;;;;;;0.00;0.00;;;;;29.32;87.39;100988.97;5040048;28;45232;-63
2021/07/23 06:42:26;;;;;;;;;0.00;0.00;;;;;29.58;86.34;100994.91;5037483;28;45455;-64
2021/07/23 06:44:52;;;;;;;;;0.00;0.00;;;;;30.01;83.90;100994.44;5013360;28;45626;-64
2021/07/23 06:47:19;;;;;;;;;0.00;0.00;;;;;30.33;83.51;100993.13;5039673;28;45443;-64
2021/07/23 06:49:45;;;;;;;;;0.00;0.00;;;;;30.08;82.83;100988.03;5028082;28;45223;-64
2021/07/23 06:52:10;;;;;;;;;0.00;0.00;;;;;30.13;81.56;100997.09;5023773;28;45297;-64
2021/07/23 06:54:36;;;;;;;;;0.00;0.00;;;;;30.55;81.54;100995.94;5042700;28;45308;-64
2021/07/23 06:57:05;;;;;;;;;0.00;0.00;;;;;30.50;81.78;100996.69;5042379;28;46213;-71
2021/07/23 06:59:32;;;;;;;;;0.00;0.00;;;;;30.60;81.04;100985.16;5037043;28;45383;-72
2021/07/23 07:01:59;;;;;;;;;0.00;0.00;;;;;30.87;80.49;100982.66;5048149;28;45502;-71
2021/07/23 07:04:25;;;;;;;;;0.00;0.00;;;;;31.18;78.44;100983.88;5038925;28;45440;-71
2021/07/23 07:06:56;;;;;;;;;0.00;0.00;;;;;31.51;79.43;100987.59;5047366;28;45343;-70
2021/07/23 07:09:23;;;;;;;;;0.00;0.00;;;;;31.97;76.93;100979.16;5042388;28;45342;-70
2021/07/23 07:11:48;;;;;;;;;0.00;0.00;;;;;32.14;75.93;100981.78;5041517;28;45421;-67
2021/07/23 07:14:13;;;;;;;;;0.00;0.00;;;;;32.28;72.28;100981.09;5039390;28;45649;-68
2021/07/23 07:16:39;;;;;;;;;0.00;0.00;;;;;32.40;73.45;100972.78;5040886;28;46759;-67
2021/07/23 07:19:04;;;;;;;;;0.00;0.00;;;;;32.56;72.78;100964.78;5030201;28;45173;-67
2021/07/23 07:21:29;;;;;;;;;0.00;0.00;;;;;32.54;70.77;100962.31;5042148;28;47897;-67
2021/07/23 07:23:54;;;;;;;;;0.00;0.00;;;;;32.41;70.62;100968.16;5042139;28;45660;-67
2021/07/23 07:26:20;;;;;;;;;1.00;1.00;;;;;32.23;70.93;100972.09;5042354;28;46010;-67
2021/07/23 07:28:45;;;;;;;;;0.00;0.00;;;;;32.14;71.18;100969.03;5032179;28;45286;-67
2021/07/23 07:31:16;;;;;;;;;0.00;0.00;;;;;32.11;71.91;100961.38;5026386;28;45292;-67
2021/07/23 07:33:41;;;;;;;;;0.00;0.00;;;;;32.23;71.95;100967.50;5037105;28;45260;-68
2021/07/23 07:36:07;;;;;;;;;0.00;0.00;;;;;32.41;71.79;100974.41;5033330;28;47303;-67
2021/07/23 07:38:32;;;;;;;;;0.00;0.00;;;;;32.78;71.85;100979.06;5050085;28;45451;-68
2021/07/23 07:40:57;;;;;;;;;0.00;0.00;;;;;33.12;70.17;100986.13;5020591;28;45732;-68
2021/07/23 07:43:22;;;;;;;;;0.00;0.00;;;;;33.41;67.95;100972.91;5028882;28;45445;-67
2021/07/23 07:45:50;;;;;;;;;0.00;0.00;;;;;33.67;66.85;100985.56;5041592;28;45516;-68
2021/07/23 07:48:15;;;;;;;;;0.00;0.00;;;;;34.09;67.53;100987.28;5042181;28;45282;-68
2021/07/23 07:50:40;;;;;;;;;0.00;0.00;;;;;34.62;63.46;100978.84;5030126;28;45423;-67
2021/07/23 07:53:09;;;;;;;;;0.00;0.00;;;;;34.75;64.01;100977.50;5036481;28;45439;-67
2021/07/23 07:55:34;;;;;;;;;0.00;0.00;;;;;34.84;62.50;100969.56;5038651;28;46161;-67
2021/07/23 07:57:59;;;;;;;;;0.00;0.00;;;;;35.04;60.79;100964.06;5042656;28;45315;-67
2021/07/23 08:00:25;;;;;;;;;0.00;0.00;;;;;35.09;61.26;100966.78;5031521;28;45370;-67
2021/07/23 08:02:50;;;;;;;;;0.00;0.00;;;;;35.13;57.99;100958.91;5046898;28;45435;-67
2021/07/23 08:05:16;;;;;;;;;0.00;0.00;;;;;35.23;58.29;100961.59;5044781;28;49806;-67
2021/07/23 08:07:41;;;;;;;;;0.00;0.00;;;;;35.22;58.07;100968.13;5031306;28;45399;-69
2021/07/23 08:10:10;;;;;;;;;0.00;0.00;;;;;35.18;58.81;100968.97;5041949;28;45430;-68
2021/07/23 08:12:35;;;;;;;;;0.00;0.00;;;;;35.32;58.67;100959.91;5041898;28;45265;-68
2021/07/23 08:15:01;;;;;;;;;0.00;0.00;;;;;35.25;57.97;100959.41;5045868;28;45189;-68
2021/07/23 08:17:28;;;;;;;;;0.00;0.00;;;;;35.36;56.74;100960.19;5040584;28;45223;-67
2021/07/23 08:19:56;;;;;;;;;0.00;0.00;;;;;35.48;56.99;100952.44;5041580;28;45229;-68
2021/07/23 08:22:22;;;;;;;;;1.50;0.00;;;;;35.70;54.47;100945.78;5041294;28;45332;-68
2021/07/23 08:24:47;;;;;;;;;0.00;0.00;;;;;35.72;55.96;100943.59;5028419;28;46560;-68
2021/07/23 08:27:14;;;;;;;;;0.00;0.00;;;;;35.77;55.89;100948.22;5032463;28;45451;-68
2021/07/23 08:29:39;;;;;;;;;0.00;0.00;;;;;35.77;57.11;100942.75;5026043;28;45408;-70
2021/07/23 08:32:08;;;;;;;;;0.00;0.00;;;;;36.21;55.39;100940.00;5029112;28;45283;-68
2021/07/23 08:34:34;;;;;;;;;0.00;0.00;;;;;36.51;52.76;100944.38;5034757;28;46723;-68
2021/07/23 08:36:59;;;;;;;;;0.00;0.00;;;;;36.37;52.35;100939.84;5039342;28;45360;-67
2021/07/23 08:39:25;;;;;;;;;0.00;0.00;;;;;36.10;53.48;100941.97;5037866;28;45478;-68
2021/07/23 08:41:50;;;;;;;;;0.00;0.00;;;;;35.84;54.77;100933.16;5037023;28;45379;-68
2021/07/23 08:44:16;;;;;;;;;0.00;0.00;;;;;35.88;54.87;100941.59;5039767;28;45607;-68
2021/07/23 08:46:42;;;;;;;;;0.00;0.00;;;;;35.95;53.94;100936.63;5047256;28;45406;-69
2021/07/23 08:49:07;;;;;;;;;0.00;0.00;;;;;36.38;55.21;100933.28;5037345;28;45297;-67
2021/07/23 08:51:33;;;;;;;;;0.00;0.00;;;;;37.05;53.54;100922.47;5031128;28;45358;-69
2021/07/23 08:53:58;;;;;;;;;0.00;0.00;;;;;37.48;51.78;100919.75;5034068;28;45285;-69
2021/07/23 08:56:23;;;;;;;;;0.00;0.00;;;;;37.91;50.65;100925.16;5036897;28;45404;-68
2021/07/23 08:58:49;;;;;;;;;0.00;0.00;;;;;38.59;49.33;100925.66;5022023;28;45300;-70
2021/07/23 09:01:14;;;;;;;;;0.00;0.00;;;;;39.30;45.77;100920.69;5037781;28;45261;-68
2021/07/23 09:03:39;;;;;;;;;0.00;0.00;;;;;40.18;44.40;100920.28;5031963;28;47355;-69
2021/07/23 09:06:17;;;;;;;;;0.00;0.00;;;;;41.88;35.93;100917.03;5020111;28;45266;-68
2021/07/23 09:08:47;;;;;;;;;0.00;0.00;;;;;43.58;32.92;100922.75;5039007;28;45343;-67
2021/07/23 09:11:13;;;;;;;;;0.00;0.00;;;;;44.82;31.42;100924.66;5038596;28;45346;-68
2021/07/23 09:13:39;;;;;;;;;0.00;0.00;;;;;45.89;29.22;100915.97;5031201;28;45253;-67
2021/07/23 09:16:22;;;;;;;;;3.00;3.00;;;;;46.76;29.63;100916.19;5045394;28;45224;-68
2021/07/23 09:19:03;;;;;;;;;0.00;0.00;;;;;47.61;28.21;100917.28;5023824;28;45584;-67
2021/07/23 09:21:29;;;;;;;;;0.00;0.00;;;;;47.92;26.64;100921.06;5035395;28;45501;-67
2021/07/23 09:23:55;;;;;;;;;1.50;0.25;;;;;47.40;23.17;100914.06;5033306;28;46315;-68
2021/07/23 09:26:20;;;;;;;;;0.00;0.00;;;;;46.71;26.77;100900.59;5036935;28;45502;-67
2021/07/23 09:28:49;;;;;;;;;0.00;0.00;;;;;46.56;26.96;100898.66;5012389;28;45272;-67
2021/07/23 09:31:22;;;;;;;;;0.00;0.00;;;;;46.69;26.29;100896.59;4998656;28;1161528;-67
2021/07/23 09:33:52;;;;;;;;;0.00;0.00;;;;;46.91;26.92;100897.91;5042151;28;45652;-66
2021/07/23 09:36:18;;;;;;;;;0.00;0.00;;;;;47.29;26.11;100899.13;5041988;28;45177;-67
2021/07/23 09:38:45;;;;;;;;;0.00;0.00;;;;;47.62;25.19;100893.84;5043729;28;45292;-67
2021/07/23 09:41:11;;;;;;;;;0.00;0.00;;;;;47.96;24.33;100894.09;5043762;28;45430;-66
2021/07/23 09:43:42;;;;;;;;;0.00;0.00;;;;;48.40;24.99;100879.72;5043244;28;46258;-68
2021/07/23 09:46:16;;;;;;;;;0.00;0.00;;;;;48.57;22.66;100883.16;5036669;28;45516;-67
2021/07/23 09:48:46;;;;;;;;;0.00;0.00;;;;;48.12;22.53;100882.81;5035864;28;45489;-67
2021/07/23 09:51:12;;;;;;;;;0.00;0.00;;;;;47.55;23.02;100882.59;5034661;28;45394;-67
2021/07/23 09:53:38;;;;;;;;;0.00;0.00;;;;;48.41;23.25;100864.63;5049857;28;45397;-66
2021/07/23 09:56:05;;;;;;;;;0.00;0.00;;;;;49.13;22.09;100862.06;5041738;28;45477;-67
2021/07/23 09:58:35;;;;;;;;;0.00;0.00;;;;;48.96;21.32;100853.06;5043266;28;45336;-67
2021/07/23 10:01:01;;;;;;;;;0.00;0.00;;;;;49.01;21.07;100841.63;5042031;28;45503;-66
2021/07/23 10:03:27;;;;;;;;;0.00;0.00;;;;;49.77;21.02;100846.03;5040916;28;46205;-67
2021/07/23 10:06:03;;;;;;;;;0.00;0.00;;;;;50.75;20.04;100840.00;5039616;28;45500;-67
2021/07/23 10:08:40;;;;;;;;;0.00;0.00;;;;;50.97;18.98;100829.69;5042692;28;46518;-68
2021/07/23 10:11:08;;;;;;;;;0.00;0.00;;;;;50.29;18.72;100815.34;5048522;28;45600;-67
2021/07/23 10:13:37;;;;;;;;;0.00;0.00;;;;;48.66;19.29;100806.47;5042744;28;46543;-66
2021/07/23 10:16:05;;;;;;;;;0.00;0.00;;;;;47.60;20.54;100811.91;5040680;28;45261;-70
2021/07/23 10:18:31;;;;;;;;;0.00;0.00;;;;;46.59;21.73;100811.81;5036649;28;45441;-67
2021/07/23 10:20:58;;;;;;;;;0.00;0.00;;;;;45.07;22.46;100813.81;5034014;28;45409;-68
2021/07/23 10:23:25;;;;;;;;;1.00;1.00;;;;;43.77;23.59;100806.09;5050408;28;45314;-67
2021/07/23 10:25:52;;;;;;;;;0.00;0.00;;;;;43.27;24.85;100796.03;5046416;28;47920;-67
2021/07/23 10:28:36;;;;;;;;;0.00;0.00;;;;;42.84;26.01;100777.84;5023860;28;45423;-70
2021/07/23 10:31:01;;;;;;;;;0.00;0.00;;;;;42.47;25.90;100783.13;5029501;28;45566;-67
2021/07/23 10:33:48;;;;;;;;;0.00;0.00;;;;;42.20;26.35;100785.16;5042737;28;45313;-69
2021/07/23 10:36:34;;;;;;;;;0.00;0.00;;;;;41.74;27.14;100776.56;5022643;28;45462;-69
2021/07/23 10:39:05;;;;;;;;;0.00;0.00;;;;;41.51;28.29;100764.09;5030109;28;45616;-68
2021/07/23 10:41:38;;;;;;;;;0.00;0.00;;;;;41.86;27.68;100767.63;5028496;28;45383;-70
2021/07/23 10:44:12;;;;;;;;;0.00;0.00;;;;;42.33;27.32;100769.50;5036881;28;45751;-68
2021/07/23 10:46:43;;;;;;;;;0.00;0.00;;;;;44.53;26.71;100759.56;5038832;28;45357;-67
2021/07/23 10:49:31;;;;;;;;;0.00;0.00;;;;;46.47;24.36;100756.41;5025842;28;45265;-68
2021/07/23 10:52:00;;;;;;;;;0.00;0.00;;;;;48.43;23.28;100750.84;5032160;28;45198;-67
2021/07/23 10:54:27;;;;;;;;;0.00;0.00;;;;;49.28;20.94;100744.66;5038196;28;45577;-67
2021/07/23 10:56:54;;;;;;;;;0.00;0.00;;;;;49.58;19.73;100749.34;5035782;28;45245;-67
2021/07/23 10:59:37;;;;;;;;;1.75;1.75;;;;;50.30;19.72;100749.09;5041661;28;45284;-67
2021/07/23 11:02:03;;;;;;;;;0.00;0.00;;;;;50.14;20.10;100736.25;5028367;28;45410;-68
2021/07/23 11:04:28;;;;;;;;;0.00;0.00;;;;;49.73;20.55;100722.38;5042104;28;45724;-68
2021/07/23 11:06:59;;;;;;;;;0.00;0.00;;;;;49.04;20.67;100720.16;5040501;28;46664;-68
2021/07/23 11:09:25;;;;;;;;;0.00;0.00;;;;;47.41;21.65;100723.72;5038372;28;45531;-68
2021/07/23 11:11:50;;;;;;;;;0.00;0.00;;;;;45.87;23.00;100717.69;5030653;28;45326;-69
2021/07/23 11:14:18;;;;;;;;;0.00;0.00;;;;;45.02;24.28;100699.28;5044499;28;45418;-68
2021/07/23 11:16:44;;;;;;;;;0.00;0.00;;;;;44.98;25.25;100697.56;5058950;28;45371;-68
2021/07/23 11:19:16;;;;;;;;;1.00;0.00;;;;;45.49;25.62;100697.75;5042589;28;45169;-67
2021/07/23 11:21:42;;;;;;;;;0.00;0.00;;;;;46.22;25.30;100701.91;5042573;28;45264;-68